createdAt,value
2022-10-31T04:46:15.856Z,8.95
2022-10-31T04:49:12.051Z,10.25
2022-10-31T04:52:01.820Z,10.77
2022-10-31T04:54:59.735Z,9.68
2022-10-31T04:57:56.141Z,10.90
2022-10-31T05:04:11.861Z,10.00
2022-10-31T05:10:41.418Z,9.82
2022-10-31T05:20:18.230Z,9.70
2022-10-31T05:27:15.418Z,9.95
2022-10-31T05:33:39.116Z,9.48
2022-10-31T05:36:25.765Z,8.60
2022-10-31T05:43:06.818Z,8.45
2022-10-31T05:52:24.737Z,7.68
2022-10-31T05:56:01.599Z,8.75
2022-10-31T05:59:37.988Z,8.98
2022-10-31T06:06:19.106Z,7.10
2022-10-31T06:09:17.685Z,7.78
2022-10-31T06:12:30.945Z,8.05
2022-10-31T06:15:28.261Z,8.68
2022-10-31T06:18:23.702Z,7.85
2022-10-31T06:24:22.903Z,7.90
2022-10-31T06:30:43.108Z,6.55
2022-10-31T06:37:53.602Z,7.72
2022-10-31T06:41:46.504Z,7.15
2022-10-31T06:45:16.960Z,6.82
2022-10-31T06:48:43.496Z,7.60
2022-10-31T06:56:09.224Z,7.13
2022-10-31T07:25:56.643Z,6.63
2022-10-31T07:38:05.382Z,6.50
2022-10-31T07:55:53.860Z,8.00
2022-10-31T07:59:25.799Z,8.10
2022-10-31T08:02:42.954Z,8.77
2022-10-31T08:09:39.393Z,7.63
2022-10-31T08:16:56.782Z,7.15
2022-10-31T08:20:29.094Z,8.50
2022-10-31T08:34:54.750Z,7.40
2022-10-31T08:38:28.824Z,7.50
2022-10-31T08:41:19.140Z,7.68
2022-10-31T08:59:56.601Z,7.75
2022-10-31T09:03:39.531Z,7.93
2022-10-31T09:10:53.811Z,7.72
2022-10-31T09:14:16.873Z,9.35
2022-10-31T09:21:19.647Z,8.52
2022-10-31T09:27:59.501Z,8.25
2022-10-31T09:30:48.812Z,8.05
2022-10-31T09:33:35.806Z,7.68
2022-10-31T09:36:22.662Z,6.97
2022-10-31T09:52:38.621Z,6.72
2022-10-31T09:55:41.807Z,7.95
2022-10-31T09:58:31.217Z,10.02
2022-10-31T10:01:41.424Z,8.75
2022-10-31T10:04:35.884Z,8.05
2022-10-31T10:12:14.012Z,9.80
2022-10-31T10:15:25.532Z,6.85
2022-10-31T10:26:21.579Z,8.60
2022-10-31T10:30:55.674Z,7.72
2022-10-31T10:43:00.238Z,9.73
2022-10-31T10:46:59.264Z,10.88
2022-10-31T10:49:53.016Z,9.73
2022-10-31T10:53:40.463Z,8.90
2022-10-31T11:05:25.348Z,10.38
2022-10-31T11:12:27.334Z,9.30
2022-10-31T11:27:22.628Z,9.40
2022-10-31T11:34:42.738Z,10.95
2022-10-31T11:37:47.876Z,13.13
2022-10-31T11:40:34.852Z,9.90
2022-10-31T11:43:29.246Z,11.68
2022-10-31T11:46:26.927Z,13.35
2022-10-31T11:49:38.085Z,13.48
2022-10-31T11:52:27.936Z,14.15
2022-10-31T11:55:37.362Z,13.75
2022-10-31T11:58:27.656Z,11.95
2022-10-31T12:01:27.012Z,13.27
2022-10-31T12:04:14.357Z,12.77
2022-10-31T12:07:01.205Z,15.27
2022-10-31T12:09:48.061Z,12.68
2022-10-31T12:13:00.573Z,12.70
2022-10-31T12:15:55.391Z,13.32
2022-10-31T12:18:59.338Z,14.32
2022-10-31T12:22:04.257Z,13.57
2022-10-31T12:25:20.557Z,13.77
2022-10-31T12:28:55.370Z,12.80
2022-10-31T12:32:11.551Z,11.73
2022-10-31T12:35:18.100Z,13.02
2022-10-31T12:38:45.230Z,13.15
2022-10-31T12:41:47.554Z,12.48
2022-10-31T12:45:08.866Z,11.35
2022-10-31T12:48:57.092Z,13.20
2022-10-31T12:52:11.449Z,12.10
2022-10-31T12:55:15.358Z,13.50
2022-10-31T12:58:07.184Z,13.27
2022-10-31T13:01:17.903Z,14.57
2022-10-31T13:04:44.446Z,12.05
2022-10-31T13:07:42.395Z,13.77
2022-10-31T13:10:34.069Z,12.27
2022-10-31T13:13:27.665Z,13.95
2022-10-31T13:16:17.925Z,13.75
2022-10-31T13:19:18.999Z,13.07
2022-10-31T13:22:09.845Z,13.63
2022-10-31T13:25:02.717Z,12.48
2022-10-31T13:27:54.355Z,12.23
2022-10-31T13:30:42.547Z,13.63
2022-10-31T13:37:05.792Z,12.30
2022-10-31T13:40:35.767Z,14.68
2022-10-31T13:43:45.032Z,12.13
2022-10-31T13:46:47.867Z,12.98
2022-10-31T13:49:34.730Z,12.43
2022-10-31T13:52:25.743Z,13.75
2022-10-31T13:56:18.286Z,11.35
2022-10-31T13:59:10.927Z,12.18
2022-10-31T14:02:01.218Z,13.27
2022-10-31T14:07:44.116Z,14.48
2022-10-31T14:10:48.029Z,13.85
2022-10-31T14:13:42.296Z,12.95
2022-10-31T14:16:32.928Z,12.35
2022-10-31T14:19:36.900Z,13.88
2022-10-31T14:22:24.333Z,12.50
2022-10-31T14:25:39.609Z,13.13
2022-10-31T14:28:36.163Z,13.32
2022-10-31T14:31:41.459Z,13.25
2022-10-31T14:34:35.931Z,13.93
2022-10-31T14:37:46.584Z,13.20
2022-10-31T14:40:42.497Z,13.70
2022-10-31T14:43:32.320Z,12.32
2022-10-31T14:46:41.984Z,12.40
2022-10-31T14:50:04.102Z,13.27
2022-10-31T14:52:54.925Z,12.02
2022-10-31T14:55:46.080Z,12.93
2022-10-31T15:00:02.645Z,11.90
2022-10-31T15:07:37.675Z,12.65
2022-10-31T15:10:47.921Z,11.68
2022-10-31T15:13:35.098Z,11.93
2022-10-31T15:16:26.355Z,14.10
2022-10-31T15:19:28.511Z,12.88
2022-10-31T15:22:27.974Z,11.32
2022-10-31T15:25:29.738Z,10.75
2022-10-31T15:28:26.429Z,11.85
2022-10-31T15:31:16.430Z,13.40
2022-10-31T15:34:41.345Z,10.45
2022-10-31T15:37:28.295Z,10.80
2022-10-31T15:40:17.170Z,12.27
2022-10-31T15:43:05.670Z,10.88
2022-10-31T15:45:52.582Z,12.25
2022-10-31T15:48:42.291Z,11.63
2022-10-31T15:51:33.621Z,12.45
2022-10-31T15:54:23.388Z,12.25
2022-10-31T15:57:13.381Z,10.77
2022-10-31T16:00:02.875Z,10.68
2022-10-31T16:02:49.677Z,11.40
2022-10-31T16:05:54.387Z,9.93
2022-10-31T16:08:50.187Z,10.73
2022-10-31T16:11:38.274Z,11.35
2022-10-31T16:26:18.244Z,11.70
2022-10-31T16:51:32.933Z,11.07
